CXA5205 RCTP-ZSAM
Flight info
| Callsign | CXA5205 |
|---|---|
| Flight time | 1h 12m |
| Altitude | 30100 |
| Route | CHALI1B CHALI T3 MKG A1 ANPOG R200 OLDID/N0465F361 R200 LAPUG/K0861S1100 R200 BEBEM/K0859S1070 A470 TEBON TEBON8X |
| Aircraft | B38M/M-SDE3FGHIRWY/LB1 |
Departure
| Time | 2026-05-07 02:44 |
|---|---|
| Airport | Taiwan Taoyuan International Airport (RCTP) |
Arrival
| Time | 2026-05-07 03:57 |
|---|---|
| Airport | Xiamen Gaoqi International Airport (ZSAM) |
| Time | Latitude | Longitude | Altitude | Speed | Heading |
|---|---|---|---|---|---|
| 2026-05-07 02:09 | 25.07763 | 121.22863 | 103 ft | 0 kts | 139° |
| 2026-05-07 02:33 | 25.07779 | 121.22849 | 101 ft | 4 kts | 139° |
| 2026-05-07 02:33 | 25.07799 | 121.22829 | 101 ft | 4 kts | 139° |
| 2026-05-07 02:33 | 25.07816 | 121.22813 | 103 ft | 4 kts | 136° |
| 2026-05-07 02:33 | 25.07829 | 121.22790 | 103 ft | 4 kts | 95° |
| 2026-05-07 02:34 | 25.07823 | 121.22764 | 102 ft | 4 kts | 53° |
| 2026-05-07 02:34 | 25.07817 | 121.22756 | 101 ft | 1 kts | 49° |
| 2026-05-07 02:37 | 25.07820 | 121.22760 | 102 ft | 2 kts | 49° |
| 2026-05-07 02:38 | 25.07838 | 121.22783 | 101 ft | 5 kts | 49° |
| 2026-05-07 02:38 | 25.07858 | 121.22809 | 103 ft | 8 kts | 49° |
| 2026-05-07 02:38 | 25.07906 | 121.22870 | 102 ft | 13 kts | 49° |
| 2026-05-07 02:38 | 25.07978 | 121.22962 | 103 ft | 18 kts | 49° |
| 2026-05-07 02:39 | 25.08071 | 121.23081 | 102 ft | 23 kts | 49° |
| 2026-05-07 02:39 | 25.08176 | 121.23148 | 103 ft | 15 kts | 324° |
| 2026-05-07 02:39 | 25.08260 | 121.23154 | 103 ft | 14 kts | 46° |
| 2026-05-07 02:39 | 25.08331 | 121.23245 | 102 ft | 18 kts | 49° |
| 2026-05-07 02:40 | 25.08433 | 121.23374 | 102 ft | 26 kts | 48° |
| 2026-05-07 02:40 | 25.08574 | 121.23549 | 102 ft | 34 kts | 52° |
| 2026-05-07 02:40 | 25.08690 | 121.23701 | 103 ft | 24 kts | 49° |
| 2026-05-07 02:40 | 25.08799 | 121.23839 | 103 ft | 25 kts | 49° |
| 2026-05-07 02:41 | 25.08914 | 121.23984 | 103 ft | 25 kts | 48° |
| 2026-05-07 02:41 | 25.09029 | 121.24135 | 84 ft | 26 kts | 45° |
| 2026-05-07 02:41 | 25.09145 | 121.24281 | 103 ft | 22 kts | 49° |
| 2026-05-07 02:41 | 25.09240 | 121.24315 | 104 ft | 8 kts | 318° |
| 2026-05-07 02:42 | 25.09248 | 121.24306 | 102 ft | 0 kts | 316° |
| 2026-05-07 02:42 | 25.09250 | 121.24305 | 102 ft | 1 kts | 316° |
| 2026-05-07 02:42 | 25.09259 | 121.24296 | 104 ft | 3 kts | 317° |
| 2026-05-07 02:43 | 25.09279 | 121.24277 | 104 ft | 5 kts | 321° |
| 2026-05-07 02:43 | 25.09320 | 121.24235 | 102 ft | 11 kts | 301° |
| 2026-05-07 02:43 | 25.09296 | 121.24148 | 103 ft | 9 kts | 228° |
| 2026-05-07 02:43 | 25.09281 | 121.24130 | 101 ft | 9 kts | 229° |
| 2026-05-07 02:44 | 25.09074 | 121.23867 | 101 ft | 81 kts | 229° |
| 2026-05-07 02:44 | 25.08563 | 121.23220 | 105 ft | 141 kts | 229° |
| 2026-05-07 02:44 | 25.07846 | 121.22251 | 225 ft | 176 kts | 233° |
| 2026-05-07 02:44 | 25.07051 | 121.21186 | 744 ft | 184 kts | 230° |
| 2026-05-07 02:45 | 25.06217 | 121.20148 | 1673 ft | 176 kts | 227° |
| 2026-05-07 02:45 | 25.05405 | 121.19150 | 2588 ft | 175 kts | 228° |
| 2026-05-07 02:45 | 25.04598 | 121.18127 | 3277 ft | 177 kts | 229° |
| 2026-05-07 02:45 | 25.03812 | 121.17100 | 4017 ft | 175 kts | 233° |
| 2026-05-07 02:46 | 25.03267 | 121.15852 | 4480 ft | 193 kts | 256° |
| 2026-05-07 02:46 | 25.03381 | 121.14267 | 4755 ft | 228 kts | 289° |
| 2026-05-07 02:46 | 25.04190 | 121.12653 | 5190 ft | 250 kts | 295° |
| 2026-05-07 02:46 | 25.05054 | 121.10934 | 5683 ft | 268 kts | 295° |
| 2026-05-07 02:47 | 25.05968 | 121.09090 | 6413 ft | 274 kts | 295° |
| 2026-05-07 02:47 | 25.06885 | 121.07243 | 7263 ft | 276 kts | 295° |
| 2026-05-07 02:47 | 25.07808 | 121.05375 | 8079 ft | 278 kts | 295° |
| 2026-05-07 02:47 | 25.08738 | 121.03491 | 8913 ft | 281 kts | 295° |
| 2026-05-07 02:48 | 25.09675 | 121.01592 | 9735 ft | 283 kts | 296° |
| 2026-05-07 02:48 | 25.10622 | 120.99671 | 10376 ft | 291 kts | 296° |
| 2026-05-07 02:48 | 25.11595 | 120.97621 | 10682 ft | 310 kts | 290° |
| 2026-05-07 02:48 | 25.12016 | 120.95246 | 10948 ft | 324 kts | 267° |
| 2026-05-07 02:49 | 25.11500 | 120.92797 | 11356 ft | 336 kts | 245° |
| 2026-05-07 02:49 | 25.10112 | 120.90694 | 11882 ft | 344 kts | 225° |
| 2026-05-07 02:49 | 25.08382 | 120.88857 | 12549 ft | 347 kts | 226° |
| 2026-05-07 02:49 | 25.06654 | 120.86974 | 13164 ft | 351 kts | 226° |
| 2026-05-07 02:50 | 25.04901 | 120.85077 | 13807 ft | 355 kts | 226° |
| 2026-05-07 02:50 | 25.03126 | 120.83162 | 14369 ft | 358 kts | 226° |
| 2026-05-07 02:50 | 25.01337 | 120.81235 | 14959 ft | 361 kts | 226° |
| 2026-05-07 02:50 | 24.99537 | 120.79297 | 15535 ft | 363 kts | 226° |
| 2026-05-07 02:51 | 24.97719 | 120.77341 | 16082 ft | 366 kts | 226° |
| 2026-05-07 02:51 | 24.95889 | 120.75374 | 16627 ft | 369 kts | 226° |
| 2026-05-07 02:51 | 24.94043 | 120.73390 | 17163 ft | 371 kts | 226° |
| 2026-05-07 02:51 | 24.92212 | 120.71423 | 17675 ft | 374 kts | 226° |
| 2026-05-07 02:52 | 24.90343 | 120.69416 | 18181 ft | 377 kts | 226° |
| 2026-05-07 02:52 | 24.88458 | 120.67391 | 18614 ft | 380 kts | 226° |
| 2026-05-07 02:52 | 24.86557 | 120.65351 | 19058 ft | 382 kts | 226° |
| 2026-05-07 02:52 | 24.84641 | 120.63297 | 19478 ft | 384 kts | 226° |
| 2026-05-07 02:53 | 24.82719 | 120.61237 | 19891 ft | 387 kts | 226° |
| 2026-05-07 02:53 | 24.80784 | 120.59163 | 20296 ft | 389 kts | 226° |
| 2026-05-07 02:53 | 24.78836 | 120.57078 | 20697 ft | 392 kts | 226° |
| 2026-05-07 02:53 | 24.76874 | 120.54977 | 21095 ft | 394 kts | 226° |
| 2026-05-07 02:54 | 24.74900 | 120.52865 | 21488 ft | 397 kts | 226° |
| 2026-05-07 02:54 | 24.72880 | 120.50779 | 21868 ft | 401 kts | 220° |
| 2026-05-07 02:54 | 24.70616 | 120.49035 | 22267 ft | 403 kts | 217° |
| 2026-05-07 02:54 | 24.68296 | 120.47270 | 22611 ft | 407 kts | 217° |
| 2026-05-07 02:55 | 24.65957 | 120.45494 | 22976 ft | 409 kts | 217° |
| 2026-05-07 02:55 | 24.63607 | 120.43712 | 23339 ft | 412 kts | 217° |
| 2026-05-07 02:55 | 24.61241 | 120.41920 | 23680 ft | 414 kts | 217° |
| 2026-05-07 02:55 | 24.58862 | 120.40120 | 23983 ft | 416 kts | 217° |
| 2026-05-07 02:56 | 24.56472 | 120.38311 | 24291 ft | 418 kts | 217° |
| 2026-05-07 02:56 | 24.54073 | 120.36498 | 24607 ft | 420 kts | 217° |
| 2026-05-07 02:56 | 24.51682 | 120.34691 | 24903 ft | 422 kts | 217° |
| 2026-05-07 02:56 | 24.49227 | 120.32836 | 25211 ft | 424 kts | 217° |
| 2026-05-07 02:57 | 24.46828 | 120.31024 | 25506 ft | 426 kts | 217° |
| 2026-05-07 02:57 | 24.44401 | 120.29150 | 25795 ft | 428 kts | 218° |
| 2026-05-07 02:57 | 24.41971 | 120.27257 | 26072 ft | 430 kts | 218° |
| 2026-05-07 02:57 | 24.39516 | 120.25349 | 26353 ft | 432 kts | 218° |
| 2026-05-07 02:58 | 24.37052 | 120.23437 | 26650 ft | 434 kts | 218° |
| 2026-05-07 02:58 | 24.34577 | 120.21517 | 26931 ft | 436 kts | 218° |
| 2026-05-07 02:58 | 24.32093 | 120.19591 | 27222 ft | 439 kts | 218° |
| 2026-05-07 02:58 | 24.29589 | 120.17651 | 27500 ft | 441 kts | 218° |
| 2026-05-07 02:59 | 24.27069 | 120.15699 | 27594 ft | 446 kts | 218° |
| 2026-05-07 02:59 | 24.24515 | 120.13722 | 27577 ft | 453 kts | 217° |
| 2026-05-07 02:59 | 24.21932 | 120.11723 | 27582 ft | 457 kts | 217° |
| 2026-05-07 02:59 | 24.19328 | 120.09710 | 27578 ft | 457 kts | 217° |
| 2026-05-07 03:00 | 24.16735 | 120.07705 | 27581 ft | 456 kts | 217° |
| 2026-05-07 03:00 | 24.14140 | 120.05698 | 27584 ft | 456 kts | 217° |
| 2026-05-07 03:00 | 24.11546 | 120.03693 | 27582 ft | 456 kts | 217° |
| 2026-05-07 03:00 | 24.08946 | 120.01685 | 27582 ft | 456 kts | 217° |
| 2026-05-07 03:01 | 24.06352 | 119.99681 | 27583 ft | 456 kts | 217° |
| 2026-05-07 03:01 | 24.03753 | 119.97676 | 27580 ft | 456 kts | 217° |
| 2026-05-07 03:01 | 24.01189 | 119.95698 | 27580 ft | 456 kts | 217° |
| 2026-05-07 03:01 | 23.98595 | 119.93700 | 27580 ft | 456 kts | 217° |
| 2026-05-07 03:02 | 23.95997 | 119.91698 | 27570 ft | 457 kts | 217° |
| 2026-05-07 03:02 | 23.93393 | 119.89694 | 27578 ft | 459 kts | 217° |
| 2026-05-07 03:02 | 23.90783 | 119.87685 | 27578 ft | 459 kts | 217° |
| 2026-05-07 03:02 | 23.88176 | 119.85681 | 27573 ft | 459 kts | 217° |
| 2026-05-07 03:03 | 23.85568 | 119.83676 | 27576 ft | 458 kts | 217° |
| 2026-05-07 03:03 | 23.82959 | 119.81672 | 27588 ft | 458 kts | 217° |
| 2026-05-07 03:03 | 23.80357 | 119.79673 | 27584 ft | 457 kts | 217° |
| 2026-05-07 03:03 | 23.77760 | 119.77681 | 27583 ft | 457 kts | 217° |
| 2026-05-07 03:04 | 23.75158 | 119.75685 | 27586 ft | 457 kts | 217° |
| 2026-05-07 03:04 | 23.72556 | 119.73690 | 27578 ft | 457 kts | 217° |
| 2026-05-07 03:04 | 23.69950 | 119.71692 | 27589 ft | 459 kts | 217° |
| 2026-05-07 03:04 | 23.67329 | 119.69684 | 27586 ft | 459 kts | 217° |
| 2026-05-07 03:05 | 23.64715 | 119.67683 | 27594 ft | 459 kts | 217° |
| 2026-05-07 03:05 | 23.62133 | 119.65707 | 27595 ft | 459 kts | 217° |
| 2026-05-07 03:05 | 23.59726 | 119.63458 | 27573 ft | 454 kts | 231° |
| 2026-05-07 03:05 | 23.57900 | 119.60670 | 27602 ft | 452 kts | 238° |
| 2026-05-07 03:06 | 23.56176 | 119.57803 | 27586 ft | 453 kts | 238° |
| 2026-05-07 03:06 | 23.54470 | 119.54921 | 27593 ft | 453 kts | 239° |
| 2026-05-07 03:06 | 23.52776 | 119.52025 | 27594 ft | 452 kts | 239° |
| 2026-05-07 03:06 | 23.51094 | 119.49132 | 27580 ft | 451 kts | 239° |
| 2026-05-07 03:07 | 23.49415 | 119.46240 | 27586 ft | 452 kts | 239° |
| 2026-05-07 03:07 | 23.47734 | 119.43344 | 27590 ft | 453 kts | 239° |
| 2026-05-07 03:07 | 23.46046 | 119.40438 | 27583 ft | 453 kts | 239° |
| 2026-05-07 03:07 | 23.44363 | 119.37542 | 27581 ft | 453 kts | 239° |
| 2026-05-07 03:08 | 23.42680 | 119.34649 | 27580 ft | 453 kts | 239° |
| 2026-05-07 03:08 | 23.40996 | 119.31753 | 27577 ft | 453 kts | 239° |
| 2026-05-07 03:08 | 23.39311 | 119.28858 | 27576 ft | 453 kts | 239° |
| 2026-05-07 03:08 | 23.37647 | 119.26003 | 27579 ft | 452 kts | 239° |
| 2026-05-07 03:09 | 23.35959 | 119.23105 | 27578 ft | 452 kts | 239° |
| 2026-05-07 03:09 | 23.34274 | 119.20216 | 27580 ft | 452 kts | 239° |
| 2026-05-07 03:09 | 23.32588 | 119.17326 | 27579 ft | 452 kts | 239° |
| 2026-05-07 03:09 | 23.30904 | 119.14441 | 27576 ft | 452 kts | 239° |
| 2026-05-07 03:10 | 23.29215 | 119.11548 | 27580 ft | 452 kts | 239° |
| 2026-05-07 03:10 | 23.27526 | 119.08659 | 27581 ft | 453 kts | 239° |
| 2026-05-07 03:10 | 23.25832 | 119.05763 | 27585 ft | 453 kts | 239° |
| 2026-05-07 03:10 | 23.24142 | 119.02873 | 27583 ft | 453 kts | 239° |
| 2026-05-07 03:11 | 23.22450 | 118.99984 | 27580 ft | 453 kts | 239° |
| 2026-05-07 03:11 | 23.20780 | 118.97132 | 27584 ft | 452 kts | 239° |
| 2026-05-07 03:11 | 23.19089 | 118.94248 | 27581 ft | 452 kts | 239° |
| 2026-05-07 03:11 | 23.17396 | 118.91360 | 27582 ft | 452 kts | 239° |
| 2026-05-07 03:12 | 23.15705 | 118.88478 | 27583 ft | 452 kts | 239° |
| 2026-05-07 03:12 | 23.14017 | 118.85603 | 27582 ft | 452 kts | 239° |
| 2026-05-07 03:12 | 23.12325 | 118.82722 | 27584 ft | 452 kts | 239° |
| 2026-05-07 03:12 | 23.10637 | 118.79851 | 27585 ft | 452 kts | 239° |
| 2026-05-07 03:13 | 23.08943 | 118.76970 | 27578 ft | 452 kts | 239° |
| 2026-05-07 03:13 | 23.07248 | 118.74090 | 27584 ft | 453 kts | 239° |
| 2026-05-07 03:13 | 23.05551 | 118.71207 | 27583 ft | 453 kts | 239° |
| 2026-05-07 03:13 | 23.03858 | 118.68332 | 27582 ft | 452 kts | 239° |
| 2026-05-07 03:14 | 23.02160 | 118.65452 | 27583 ft | 452 kts | 239° |
| 2026-05-07 03:14 | 23.00467 | 118.62580 | 27585 ft | 452 kts | 239° |
| 2026-05-07 03:14 | 22.97081 | 118.56841 | 27582 ft | 451 kts | 239° |
| 2026-05-07 03:15 | 22.95403 | 118.54007 | 27586 ft | 451 kts | 239° |
| 2026-05-07 03:15 | 22.93699 | 118.51142 | 27585 ft | 451 kts | 239° |
| 2026-05-07 03:15 | 22.91994 | 118.48275 | 27585 ft | 451 kts | 239° |
| 2026-05-07 03:15 | 22.90292 | 118.45413 | 27585 ft | 451 kts | 239° |
| 2026-05-07 03:16 | 22.88587 | 118.42549 | 27574 ft | 452 kts | 239° |
| 2026-05-07 03:16 | 22.86883 | 118.39688 | 27576 ft | 452 kts | 239° |
| 2026-05-07 03:16 | 22.85177 | 118.36824 | 27582 ft | 453 kts | 239° |
| 2026-05-07 03:16 | 22.83467 | 118.33955 | 27583 ft | 452 kts | 239° |
| 2026-05-07 03:17 | 22.81758 | 118.31091 | 27581 ft | 452 kts | 239° |
| 2026-05-07 03:17 | 22.80050 | 118.28228 | 27585 ft | 452 kts | 239° |
| 2026-05-07 03:17 | 22.78345 | 118.25373 | 27583 ft | 452 kts | 239° |
| 2026-05-07 03:17 | 22.76636 | 118.22513 | 27582 ft | 452 kts | 239° |
| 2026-05-07 03:18 | 22.74950 | 118.19692 | 27581 ft | 452 kts | 239° |
| 2026-05-07 03:18 | 22.73239 | 118.16832 | 27582 ft | 452 kts | 239° |
| 2026-05-07 03:18 | 22.71532 | 118.13979 | 27583 ft | 452 kts | 239° |
| 2026-05-07 03:18 | 22.69824 | 118.11126 | 27579 ft | 452 kts | 239° |
| 2026-05-07 03:19 | 22.68114 | 118.08272 | 27580 ft | 452 kts | 239° |
| 2026-05-07 03:19 | 22.66404 | 118.05419 | 27581 ft | 451 kts | 239° |
| 2026-05-07 03:19 | 22.64865 | 118.02469 | 27560 ft | 448 kts | 250° |
| 2026-05-07 03:19 | 22.64065 | 117.99236 | 27584 ft | 445 kts | 264° |
| 2026-05-07 03:20 | 22.64053 | 117.95889 | 27581 ft | 444 kts | 278° |
| 2026-05-07 03:20 | 22.64775 | 117.92648 | 27584 ft | 444 kts | 290° |
| 2026-05-07 03:20 | 22.66169 | 117.89664 | 27569 ft | 446 kts | 304° |
| 2026-05-07 03:20 | 22.68106 | 117.87034 | 27587 ft | 448 kts | 309° |
| 2026-05-07 03:21 | 22.70127 | 117.84518 | 27574 ft | 448 kts | 310° |
| 2026-05-07 03:21 | 22.72225 | 117.82014 | 27585 ft | 449 kts | 311° |
| 2026-05-07 03:21 | 22.74343 | 117.79536 | 27582 ft | 449 kts | 311° |
| 2026-05-07 03:21 | 22.76475 | 117.77068 | 27582 ft | 449 kts | 311° |
| 2026-05-07 03:22 | 22.78617 | 117.74603 | 27587 ft | 449 kts | 311° |
| 2026-05-07 03:22 | 22.80035 | 117.72973 | 27586 ft | 449 kts | 311° |
| 2026-05-07 03:22 | 22.82903 | 117.69679 | 27585 ft | 449 kts | 311° |
| 2026-05-07 03:22 | 22.84326 | 117.68044 | 27585 ft | 449 kts | 311° |
| 2026-05-07 03:23 | 22.86467 | 117.65584 | 27583 ft | 449 kts | 311° |
| 2026-05-07 03:23 | 22.88612 | 117.63117 | 27584 ft | 449 kts | 311° |
| 2026-05-07 03:23 | 22.90752 | 117.60654 | 27585 ft | 449 kts | 311° |
| 2026-05-07 03:23 | 22.93616 | 117.57358 | 27585 ft | 449 kts | 311° |
| 2026-05-07 03:24 | 22.95033 | 117.55725 | 27585 ft | 449 kts | 311° |
| 2026-05-07 03:24 | 22.97126 | 117.53219 | 27573 ft | 447 kts | 306° |
| 2026-05-07 03:24 | 22.98675 | 117.50318 | 27584 ft | 444 kts | 291° |
| 2026-05-07 03:24 | 22.99453 | 117.47085 | 27587 ft | 444 kts | 276° |
| 2026-05-07 03:25 | 22.99545 | 117.43733 | 27598 ft | 444 kts | 270° |
| 2026-05-07 03:25 | 22.99491 | 117.40377 | 27587 ft | 445 kts | 269° |
| 2026-05-07 03:25 | 22.99399 | 117.37061 | 27589 ft | 445 kts | 268° |
| 2026-05-07 03:25 | 22.99287 | 117.33703 | 27588 ft | 445 kts | 268° |
| 2026-05-07 03:26 | 22.99159 | 117.30343 | 27585 ft | 445 kts | 268° |
| 2026-05-07 03:26 | 22.99023 | 117.26986 | 27585 ft | 445 kts | 268° |
| 2026-05-07 03:26 | 22.98884 | 117.23628 | 27585 ft | 445 kts | 268° |
| 2026-05-07 03:26 | 22.98744 | 117.20275 | 27585 ft | 445 kts | 268° |
| 2026-05-07 03:27 | 22.98604 | 117.16920 | 27589 ft | 445 kts | 268° |
| 2026-05-07 03:27 | 22.98462 | 117.13567 | 27589 ft | 444 kts | 268° |
| 2026-05-07 03:27 | 22.98321 | 117.10221 | 27587 ft | 444 kts | 268° |
| 2026-05-07 03:27 | 22.98178 | 117.06876 | 27588 ft | 444 kts | 268° |
| 2026-05-07 03:28 | 22.98035 | 117.03526 | 27588 ft | 444 kts | 268° |
| 2026-05-07 03:28 | 22.97889 | 117.00181 | 27588 ft | 444 kts | 268° |
| 2026-05-07 03:28 | 22.97746 | 116.96838 | 27588 ft | 444 kts | 268° |
| 2026-05-07 03:28 | 22.97602 | 116.93500 | 27587 ft | 444 kts | 268° |
| 2026-05-07 03:29 | 22.97456 | 116.90149 | 27590 ft | 444 kts | 268° |
| 2026-05-07 03:29 | 22.97311 | 116.86846 | 27589 ft | 444 kts | 268° |
| 2026-05-07 03:29 | 22.97163 | 116.83502 | 27589 ft | 443 kts | 267° |
| 2026-05-07 03:29 | 22.97016 | 116.80168 | 27588 ft | 443 kts | 267° |
| 2026-05-07 03:30 | 22.96868 | 116.76829 | 27588 ft | 442 kts | 267° |
| 2026-05-07 03:30 | 22.96719 | 116.73495 | 27587 ft | 442 kts | 267° |
| 2026-05-07 03:30 | 22.96569 | 116.70164 | 27588 ft | 442 kts | 267° |
| 2026-05-07 03:30 | 22.96419 | 116.66828 | 27588 ft | 442 kts | 267° |
| 2026-05-07 03:31 | 22.96445 | 116.63498 | 27572 ft | 441 kts | 278° |
| 2026-05-07 03:31 | 22.97287 | 116.60301 | 27592 ft | 443 kts | 293° |
| 2026-05-07 03:31 | 22.98880 | 116.57433 | 27589 ft | 447 kts | 307° |
| 2026-05-07 03:31 | 23.01091 | 116.55060 | 27596 ft | 451 kts | 320° |
| 2026-05-07 03:32 | 23.03785 | 116.53297 | 27379 ft | 456 kts | 333° |
| 2026-05-07 03:32 | 23.06827 | 116.52261 | 27035 ft | 462 kts | 347° |
| 2026-05-07 03:32 | 23.10042 | 116.52007 | 26694 ft | 463 kts | 0° |
| 2026-05-07 03:32 | 23.13205 | 116.52602 | 26353 ft | 462 kts | 15° |
| 2026-05-07 03:33 | 23.16123 | 116.54061 | 26014 ft | 464 kts | 30° |
| 2026-05-07 03:33 | 23.18811 | 116.56013 | 25702 ft | 464 kts | 32° |
| 2026-05-07 03:33 | 23.21406 | 116.58018 | 25362 ft | 462 kts | 34° |
| 2026-05-07 03:33 | 23.23989 | 116.60089 | 24961 ft | 459 kts | 34° |
| 2026-05-07 03:34 | 23.26535 | 116.62166 | 24554 ft | 455 kts | 35° |
| 2026-05-07 03:34 | 23.29047 | 116.64238 | 24132 ft | 451 kts | 35° |
| 2026-05-07 03:34 | 23.31533 | 116.66299 | 23726 ft | 446 kts | 36° |
| 2026-05-07 03:34 | 23.33980 | 116.68332 | 23281 ft | 442 kts | 36° |
| 2026-05-07 03:35 | 23.36429 | 116.70367 | 22798 ft | 439 kts | 36° |
| 2026-05-07 03:35 | 23.38845 | 116.72376 | 22327 ft | 435 kts | 36° |
| 2026-05-07 03:35 | 23.41242 | 116.74371 | 21868 ft | 432 kts | 36° |
| 2026-05-07 03:35 | 23.43612 | 116.76360 | 21401 ft | 429 kts | 39° |
| 2026-05-07 03:36 | 23.45728 | 116.78634 | 20950 ft | 427 kts | 45° |
| 2026-05-07 03:36 | 23.47785 | 116.80959 | 20514 ft | 424 kts | 45° |
| 2026-05-07 03:36 | 23.49831 | 116.83273 | 20074 ft | 422 kts | 45° |
| 2026-05-07 03:36 | 23.51850 | 116.85565 | 19638 ft | 419 kts | 45° |
| 2026-05-07 03:37 | 23.53873 | 116.87860 | 19214 ft | 417 kts | 45° |
| 2026-05-07 03:37 | 23.55879 | 116.90138 | 18800 ft | 416 kts | 45° |
| 2026-05-07 03:37 | 23.57856 | 116.92383 | 18387 ft | 415 kts | 45° |
| 2026-05-07 03:37 | 23.59852 | 116.94651 | 17915 ft | 413 kts | 45° |
| 2026-05-07 03:38 | 23.61829 | 116.96899 | 17437 ft | 411 kts | 45° |
| 2026-05-07 03:38 | 23.63811 | 116.99153 | 16963 ft | 410 kts | 45° |
| 2026-05-07 03:38 | 23.65774 | 117.01387 | 16555 ft | 407 kts | 45° |
| 2026-05-07 03:38 | 23.67720 | 117.03602 | 16154 ft | 404 kts | 45° |
| 2026-05-07 03:39 | 23.69661 | 117.05813 | 15758 ft | 401 kts | 45° |
| 2026-05-07 03:39 | 23.71592 | 117.08014 | 15367 ft | 398 kts | 45° |
| 2026-05-07 03:39 | 23.73506 | 117.10195 | 14995 ft | 395 kts | 45° |
| 2026-05-07 03:39 | 23.75375 | 117.12328 | 14640 ft | 393 kts | 45° |
| 2026-05-07 03:40 | 23.77340 | 117.14375 | 14263 ft | 389 kts | 39° |
| 2026-05-07 03:40 | 23.79372 | 117.16319 | 13903 ft | 386 kts | 40° |
| 2026-05-07 03:40 | 23.81375 | 117.18260 | 13521 ft | 383 kts | 40° |
| 2026-05-07 03:40 | 23.83350 | 117.20187 | 13144 ft | 381 kts | 40° |
| 2026-05-07 03:41 | 23.85321 | 117.22114 | 12772 ft | 377 kts | 40° |
| 2026-05-07 03:41 | 23.87258 | 117.24014 | 12383 ft | 374 kts | 40° |
| 2026-05-07 03:41 | 23.89187 | 117.25903 | 12049 ft | 369 kts | 40° |
| 2026-05-07 03:41 | 23.91098 | 117.27778 | 11695 ft | 366 kts | 40° |
| 2026-05-07 03:42 | 23.92987 | 117.29632 | 11338 ft | 363 kts | 40° |
| 2026-05-07 03:42 | 23.94862 | 117.31473 | 11000 ft | 360 kts | 40° |
| 2026-05-07 03:42 | 23.96721 | 117.33297 | 10687 ft | 357 kts | 40° |
| 2026-05-07 03:42 | 23.98548 | 117.35094 | 10446 ft | 350 kts | 40° |
| 2026-05-07 03:43 | 24.00328 | 117.36843 | 10193 ft | 335 kts | 39° |
| 2026-05-07 03:43 | 24.02026 | 117.38513 | 9963 ft | 323 kts | 39° |
| 2026-05-07 03:43 | 24.03685 | 117.40145 | 9720 ft | 319 kts | 40° |
| 2026-05-07 03:43 | 24.05304 | 117.41738 | 9457 ft | 315 kts | 40° |
| 2026-05-07 03:44 | 24.06923 | 117.43331 | 9184 ft | 310 kts | 40° |
| 2026-05-07 03:44 | 24.08516 | 117.44899 | 8943 ft | 306 kts | 40° |
| 2026-05-07 03:44 | 24.10090 | 117.46450 | 8677 ft | 303 kts | 40° |
| 2026-05-07 03:44 | 24.11647 | 117.47985 | 8410 ft | 299 kts | 40° |
| 2026-05-07 03:45 | 24.13180 | 117.49496 | 8175 ft | 295 kts | 40° |
| 2026-05-07 03:45 | 24.14617 | 117.51095 | 7911 ft | 293 kts | 46° |
| 2026-05-07 03:45 | 24.15970 | 117.52750 | 7667 ft | 290 kts | 46° |
| 2026-05-07 03:45 | 24.17320 | 117.54384 | 7423 ft | 287 kts | 46° |
| 2026-05-07 03:46 | 24.18656 | 117.55989 | 7225 ft | 284 kts | 46° |
| 2026-05-07 03:46 | 24.19989 | 117.57585 | 7030 ft | 283 kts | 46° |
| 2026-05-07 03:46 | 24.21313 | 117.59167 | 6839 ft | 281 kts | 46° |
| 2026-05-07 03:46 | 24.22626 | 117.60737 | 6647 ft | 277 kts | 46° |
| 2026-05-07 03:47 | 24.23920 | 117.62281 | 6444 ft | 272 kts | 46° |
| 2026-05-07 03:47 | 24.25160 | 117.63762 | 6288 ft | 268 kts | 46° |
| 2026-05-07 03:47 | 24.26416 | 117.65261 | 6136 ft | 266 kts | 46° |
| 2026-05-07 03:47 | 24.27666 | 117.66755 | 5981 ft | 265 kts | 46° |
| 2026-05-07 03:48 | 24.28909 | 117.68239 | 5820 ft | 264 kts | 46° |
| 2026-05-07 03:48 | 24.30150 | 117.69723 | 5675 ft | 263 kts | 46° |
| 2026-05-07 03:48 | 24.31377 | 117.71190 | 5485 ft | 258 kts | 46° |
| 2026-05-07 03:48 | 24.32578 | 117.72626 | 5309 ft | 253 kts | 46° |
| 2026-05-07 03:49 | 24.33763 | 117.74043 | 5135 ft | 251 kts | 46° |
| 2026-05-07 03:49 | 24.34937 | 117.75448 | 4962 ft | 249 kts | 46° |
| 2026-05-07 03:49 | 24.36085 | 117.76823 | 4823 ft | 241 kts | 46° |
| 2026-05-07 03:49 | 24.37207 | 117.78166 | 4658 ft | 235 kts | 46° |
| 2026-05-07 03:50 | 24.38301 | 117.79475 | 4473 ft | 231 kts | 46° |
| 2026-05-07 03:50 | 24.39329 | 117.80810 | 4248 ft | 227 kts | 60° |
| 2026-05-07 03:50 | 24.39764 | 117.82423 | 4072 ft | 223 kts | 84° |
| 2026-05-07 03:50 | 24.39926 | 117.84092 | 3916 ft | 217 kts | 84° |
| 2026-05-07 03:51 | 24.40073 | 117.85726 | 3734 ft | 213 kts | 84° |
| 2026-05-07 03:51 | 24.40209 | 117.87318 | 3583 ft | 205 kts | 85° |
| 2026-05-07 03:51 | 24.40335 | 117.88862 | 3538 ft | 203 kts | 85° |
| 2026-05-07 03:51 | 24.40457 | 117.90402 | 3532 ft | 201 kts | 85° |
| 2026-05-07 03:52 | 24.40573 | 117.91901 | 3554 ft | 195 kts | 85° |
| 2026-05-07 03:52 | 24.40882 | 117.93333 | 3506 ft | 192 kts | 64° |
| 2026-05-07 03:52 | 24.41549 | 117.94602 | 3442 ft | 192 kts | 54° |
| 2026-05-07 03:52 | 24.42322 | 117.95789 | 3386 ft | 192 kts | 52° |
| 2026-05-07 03:53 | 24.43125 | 117.96959 | 3184 ft | 191 kts | 51° |
| 2026-05-07 03:53 | 24.43929 | 117.98099 | 2961 ft | 186 kts | 51° |
| 2026-05-07 03:53 | 24.44710 | 117.99199 | 2729 ft | 184 kts | 51° |
| 2026-05-07 03:53 | 24.45499 | 118.00306 | 2515 ft | 183 kts | 51° |
| 2026-05-07 03:54 | 24.46280 | 118.01400 | 2289 ft | 181 kts | 51° |
| 2026-05-07 03:54 | 24.47053 | 118.02481 | 2082 ft | 178 kts | 51° |
| 2026-05-07 03:54 | 24.47794 | 118.03514 | 1845 ft | 167 kts | 51° |
| 2026-05-07 03:54 | 24.48502 | 118.04503 | 1659 ft | 165 kts | 52° |
| 2026-05-07 03:55 | 24.49209 | 118.05492 | 1420 ft | 164 kts | 52° |
| 2026-05-07 03:55 | 24.49911 | 118.06473 | 1210 ft | 163 kts | 52° |
| 2026-05-07 03:55 | 24.50605 | 118.07445 | 998 ft | 162 kts | 52° |
| 2026-05-07 03:55 | 24.51303 | 118.08418 | 792 ft | 161 kts | 52° |
| 2026-05-07 03:56 | 24.51992 | 118.09385 | 604 ft | 160 kts | 52° |
| 2026-05-07 03:56 | 24.52666 | 118.10353 | 372 ft | 158 kts | 52° |
| 2026-05-07 03:56 | 24.53350 | 118.11292 | 169 ft | 157 kts | 49° |
| 2026-05-07 03:56 | 24.54007 | 118.12208 | 60 ft | 143 kts | 52° |
| 2026-05-07 03:57 | 24.54503 | 118.12887 | 50 ft | 83 kts | 51° |
| 2026-05-07 03:57 | 24.54692 | 118.13182 | 50 ft | 33 kts | 72° |
| 2026-05-07 03:57 | 24.54702 | 118.13333 | 53 ft | 13 kts | 74° |
| 2026-05-07 03:57 | 24.54695 | 118.13415 | 52 ft | 8 kts | 142° |
| 2026-05-07 03:58 | 24.54668 | 118.13416 | 52 ft | 1 kts | 222° |
| 2026-05-07 03:58 | 24.54654 | 118.13398 | 51 ft | 6 kts | 231° |
| 2026-05-07 03:58 | 24.54615 | 118.13339 | 53 ft | 13 kts | 234° |
| 2026-05-07 03:58 | 24.54546 | 118.13242 | 50 ft | 19 kts | 232° |
| 2026-05-07 03:59 | 24.54469 | 118.13133 | 52 ft | 12 kts | 231° |
| 2026-05-07 03:59 | 24.54413 | 118.13055 | 55 ft | 14 kts | 231° |
| 2026-05-07 03:59 | 24.54352 | 118.12970 | 52 ft | 15 kts | 232° |
| 2026-05-07 03:59 | 24.54286 | 118.12877 | 50 ft | 16 kts | 232° |
| 2026-05-07 04:00 | 24.54233 | 118.12804 | 52 ft | 6 kts | 229° |
| 2026-05-07 04:00 | 24.54192 | 118.12797 | 55 ft | 7 kts | 155° |
| 2026-05-07 04:00 | 24.54148 | 118.12831 | 54 ft | 9 kts | 143° |
| 2026-05-07 04:00 | 24.54141 | 118.12836 | 58 ft | 2 kts | 143° |
| 2026-05-07 04:01 | 24.54136 | 118.12840 | 49 ft | 2 kts | 143° |
| 2026-05-07 04:01 | 24.54121 | 118.12853 | 58 ft | 4 kts | 147° |
| 2026-05-07 04:01 | 24.54093 | 118.12863 | 54 ft | 5 kts | 165° |
| 2026-05-07 04:01 | 24.54055 | 118.12879 | 58 ft | 7 kts | 144° |
| 2026-05-07 04:02 | 24.54028 | 118.12902 | 55 ft | 1 kts | 143° |
| 2026-05-07 04:02 | 24.54027 | 118.12904 | 55 ft | 0 kts | 143° |